This is the latest recevied weather packets stored in our database for station/object SV2BBO-11. If no packets are shown the sender has not sent any weather packets the latest 1 day(s).
| Time | Temp. | Humidity | Pressure | Rain* | Wind** | Luminosity | Snow |
|---|---|---|---|---|---|---|---|
| 1778024558 | 16.11° C | 61% | 1014.6 hPa | 0 mm | 0 m/s | 0 W/m² | - |
| 1778022758 | 16.11° C | 61% | 1014.5 hPa | 0 mm | 0 m/s | 0 W/m² | - |
| 1778021858 | 16.11° C | 62% | 1014.5 hPa | 0 mm | 0 m/s | 0 W/m² | - |
| 1778021558 | 16.67° C | 61% | 1014.6 hPa | 0 mm | 0 m/s | 0 W/m² | - |
| 1778021258 | 16.67° C | 62% | 1014.7 hPa | 0 mm | 0 m/s | 0 W/m² | - |
| 1778020958 | 16.67° C | 62% | 1014.7 hPa | 0 mm | 0 m/s | 0 W/m² | - |
| 1778020358 | 16.67° C | 61% | 1014.7 hPa | 0 mm | 0 m/s | 0 W/m² | - |
| 1778020058 | 16.67° C | 61% | 1014.7 hPa | 0 mm | 0 m/s | 0 W/m² | - |
| 1778019758 | 17.22° C | 62% | 1014.7 hPa | 0 mm | 0 m/s | 0 W/m² | - |
| 1778018689 | 17.78° C | 62% | 1014.6 hPa | 0 mm | 0 m/s | 0 W/m² | - |
| 1778015506 | 18.89° C | 63% | 1014.4 hPa | 0 mm | 0.89 m/s, 328° | 0 W/m² | - |
| 1778015206 | 18.89° C | 61% | 1014.3 hPa | 0 mm | 0 m/s | 0 W/m² | - |
| 1778014906 | 18.89° C | 60% | 1014.3 hPa | 0 mm | 0 m/s | 0 W/m² | - |
| 1778013701 | 18.89° C | 50% | 1014 hPa | 0 mm | 0 m/s | 0 W/m² | - |
| 1778011718 | 19.44° C | 45% | 1013.7 hPa | 0 mm | 0 m/s | 0 W/m² | - |
| 1778009918 | 20° C | 46% | 1013.6 hPa | 0 mm | 0 m/s | 0 W/m² | - |
| 1778009618 | 20° C | 46% | 1013.5 hPa | 0 mm | 0 m/s | 0 W/m² | - |
| 1778000156 | 23.33° C | 41% | 1012.3 hPa | 0 mm | 0.45 m/s, 169° | 16 W/m² | - |
| 1777982795 | 26.67° C | 34% | 1014.1 hPa | 0 mm | 0.89 m/s, 206° | 773 W/m² | - |
| 1777975133 | 26.11° C | 36% | 1015.1 hPa | 0 mm | 0 m/s | 849 W/m² | - |
| 1777967499 | 22.22° C | 44% | 1016.1 hPa | 0 mm | 0 m/s | 675 W/m² | - |
| 1777966299 | 21.67° C | 46% | 1016.1 hPa | 0 mm | 0 m/s | 631 W/m² | - |
| 1777965099 | 20.56° C | 49% | 1016.2 hPa | 0 mm | 0 m/s | 577 W/m² | - |
| 1777960870 | 18.33° C | 59% | 1016.2 hPa | 0 mm | 0 m/s | 390 W/m² | - |
| 1777960270 | 17.22° C | 61% | 1016.2 hPa | 0 mm | 0 m/s | 360 W/m² | - |
* Rain latest hour (hover to see other rain measurements)
** Current wind speed in m/s (hover to see current wind gust speed)